Decoded Metar for LJMB (MARIBOR in SLOVENIA) (IATA:MBX) | Meteo·Mobile Aviation Weather
aviador You're here:

LJMB Decoded Metar

MARIBOR in SLOVENIA
Report Time2019-09-23 09:00:00
UTC Time2019-09-23 09:20:24
Flight Rules vfr VFR
Wind010° at 03 kt
W.Decomp.*RWY 32: 2.0 kt HW 2.2 kt RCW
Visibility9999 m
Phenomena:N/A
Clouds:N/A
Expected CloudBase > 2,400 ft AGL from Temp-Dew spread
CeilingNone
Temp19°C (ISA +6)
Dew Point13°C (68% RH)
AAT18.8°C
QNH1012 hPa
Density Alt1,778 ft
Elevation869 ft
Report Wrong Elevation
Raw Report
LJMB 230900Z 01003KT 340V040 CAVOK 19/13 Q1012=

Extra information for LJMB:More info

Metar Taf Metar & Taf Last 4 Metars F.Rules Stats Wind Profile Meteogram Temp Stats Airport Information Weather charts Add Link Nearby VenuesMetar ALERT Operation Metar Decoded Social comments